Time;durP1;ratioP1;P1;durP2;ratioP2;P2;SDS_P1;SDS_P2;PMS_P1;PMS_P2;Temp;Humidity;BMP_temperature;BMP_pressure;BME280_temperature;BME280_humidity;BME280_pressure;Samples;Min_cycle;Max_cycle;Signal;HPM_P1;HPM_P2
2021/04/18 00:01:13;;;;;;;8.57;4.90;;;;;;;6.62;58.21;100922.97;5075169;28;20494;-72
2021/04/18 00:03:39;;;;;;;9.52;4.20;;;;;;;6.59;58.25;100921.56;5075679;28;20051;-72
2021/04/18 00:06:07;;;;;;;6.88;4.32;;;;;;;6.46;58.59;100917.41;5085958;28;20052;-72
2021/04/18 00:08:34;;;;;;;6.55;4.57;;;;;;;6.49;58.55;100916.88;5095273;28;20378;-72
2021/04/18 00:11:01;;;;;;;6.55;4.57;;;;;;;6.43;58.76;100915.22;5095590;28;20063;-72
2021/04/18 00:13:28;;;;;;;8.00;4.60;;;;;;;6.38;58.66;100922.66;5095212;28;20393;-72
2021/04/18 00:15:54;;;;;;;6.15;4.20;;;;;;;6.35;59.17;100917.72;5094576;28;20059;-72
2021/04/18 00:18:21;;;;;;;7.35;4.55;;;;;;;6.30;59.07;100918.53;5095387;28;20048;-72
2021/04/18 00:20:48;;;;;;;8.40;4.53;;;;;;;6.29;59.27;100917.69;5095244;28;20048;-72
2021/04/18 00:23:18;;;;;;;6.82;4.68;;;;;;;6.29;59.63;100917.69;5094409;28;20056;-72
2021/04/18 00:25:45;;;;;;;6.57;4.30;;;;;;;6.26;59.38;100920.19;5074711;28;20087;-72
2021/04/18 00:28:12;;;;;;;7.93;4.20;;;;;;;6.26;59.56;100921.00;5075314;28;20375;-72
2021/04/18 00:30:39;;;;;;;5.68;3.92;;;;;;;6.25;59.37;100918.50;5075760;28;20052;-74
2021/04/18 00:33:06;;;;;;;7.88;4.22;;;;;;;6.19;59.69;100923.19;5074974;28;20060;-72
2021/04/18 00:35:33;;;;;;;8.23;3.92;;;;;;;6.19;59.95;100911.31;5074999;28;20057;-72
2021/04/18 00:37:59;;;;;;;6.07;4.30;;;;;;;6.21;60.27;100907.16;5075204;28;20075;-72
2021/04/18 00:40:27;;;;;;;8.55;4.70;;;;;;;6.23;59.85;100917.97;5094064;28;20056;-72
2021/04/18 00:42:54;;;;;;;7.18;4.40;;;;;;;6.32;59.84;100916.31;5094885;28;20404;-72
2021/04/18 00:45:22;;;;;;;7.45;4.57;;;;;;;6.36;60.06;100911.06;5095115;28;20059;-72
2021/04/18 00:47:51;;;;;;;9.07;4.85;;;;;;;6.43;59.68;100906.91;5095033;28;20048;-72
2021/04/18 00:50:21;;;;;;;6.43;4.22;;;;;;;6.53;59.85;100910.78;5094779;28;20055;-72
2021/04/18 00:52:49;;;;;;;7.60;4.45;;;;;;;6.62;59.45;100909.13;5095170;28;20350;-72
2021/04/18 00:55:16;;;;;;;10.25;4.57;;;;;;;6.65;59.69;100914.94;5089482;28;20052;-72
2021/04/18 00:57:46;;;;;;;8.75;4.15;;;;;;;6.72;60.01;100911.91;5074118;28;20059;-72
2021/04/18 01:00:14;;;;;;;6.82;4.47;;;;;;;6.77;59.74;100898.03;5075231;28;20059;-72
2021/04/18 01:02:41;;;;;;;9.20;4.55;;;;;;;6.86;59.50;100912.16;5074234;28;20055;-72
2021/04/18 01:05:09;;;;;;;9.82;4.80;;;;;;;6.95;59.37;100904.09;5076320;28;20080;-72
2021/04/18 01:07:38;;;;;;;7.78;4.30;;;;;;;7.00;59.95;100899.41;5094313;28;20485;-72
2021/04/18 01:10:09;;;;;;;6.30;3.95;;;;;;;7.05;59.76;100902.13;5090514;28;20473;-72
2021/04/18 01:12:36;;;;;;;7.30;4.78;;;;;;;7.12;59.85;100896.34;5074565;28;20060;-72
2021/04/18 01:15:05;;;;;;;7.57;4.43;;;;;;;7.22;59.37;100893.50;5074196;28;20048;-72
2021/04/18 01:17:32;;;;;;;5.72;3.80;;;;;;;7.28;59.62;100895.16;5074207;28;20504;-72
2021/04/18 01:19:59;;;;;;;7.55;4.03;;;;;;;7.35;59.24;100888.47;5092008;28;20503;-72
2021/04/18 01:22:26;;;;;;;7.25;4.07;;;;;;;7.41;58.67;100887.34;5094061;28;20063;-73
2021/04/18 01:24:53;;;;;;;8.68;4.03;;;;;;;7.45;59.58;100882.91;5091123;28;20048;-73
2021/04/18 01:27:22;;;;;;;9.68;4.30;;;;;;;7.45;59.92;100885.69;5093947;28;20052;-73
2021/04/18 01:29:49;;;;;;;7.25;4.03;;;;;;;7.51;59.44;100881.78;5094345;28;20048;-73
2021/04/18 01:32:23;;;;;;;6.97;4.03;;;;;;;7.60;59.47;100885.63;5094230;28;20051;-73
2021/04/18 01:34:50;;;;;;;9.00;4.47;;;;;;;7.64;58.98;100886.72;5094158;28;20048;-73
2021/04/18 01:37:19;;;;;;;5.72;3.80;;;;;;;7.72;58.52;100888.88;5093999;28;20059;-73
2021/04/18 01:39:48;;;;;;;6.97;4.18;;;;;;;7.80;58.32;100892.19;5094006;28;20048;-73
2021/04/18 01:42:15;;;;;;;9.70;4.38;;;;;;;7.81;58.94;100893.81;5093879;28;20067;-73
2021/04/18 01:44:43;;;;;;;7.65;4.28;;;;;;;7.83;58.79;100894.38;5094438;28;20044;-72
2021/04/18 01:47:10;;;;;;;9.70;4.82;;;;;;;7.86;59.16;100896.59;5093458;28;20055;-72
2021/04/18 01:49:37;;;;;;;5.90;4.18;;;;;;;7.85;59.73;100898.53;5093616;28;20056;-72
2021/04/18 01:52:04;;;;;;;8.07;4.30;;;;;;;7.80;59.51;100894.97;5093944;28;20508;-72
2021/04/18 01:54:31;;;;;;;6.20;4.50;;;;;;;7.78;59.45;100898.00;5092653;28;20052;-72
2021/04/18 01:56:59;;;;;;;7.32;4.22;;;;;;;7.76;59.49;100894.69;5093778;28;20413;-72
2021/04/18 01:59:26;;;;;;;8.52;4.47;;;;;;;7.80;59.95;100892.19;5093090;28;20059;-72
2021/04/18 02:01:52;;;;;;;8.05;4.53;;;;;;;7.79;59.06;100887.72;5093481;28;20051;-72
2021/04/18 02:04:21;;;;;;;8.95;4.68;;;;;;;7.81;58.33;100886.38;5093631;28;20052;-72
2021/04/18 02:06:48;;;;;;;9.38;4.25;;;;;;;7.80;59.07;100892.19;5093695;28;20058;-72
2021/04/18 02:09:15;;;;;;;8.45;4.00;;;;;;;7.84;59.24;100890.50;5093413;28;20424;-72
2021/04/18 02:11:42;;;;;;;8.40;4.30;;;;;;;7.81;58.98;100893.81;5093225;28;20055;-72
2021/04/18 02:14:10;;;;;;;6.85;4.00;;;;;;;7.86;59.46;100883.53;5093770;28;20492;-72
2021/04/18 02:16:37;;;;;;;7.78;4.32;;;;;;;7.93;59.29;100889.59;5092889;28;20052;-72
2021/04/18 02:19:05;;;;;;;6.45;3.88;;;;;;;8.01;59.29;100885.41;5093416;28;20417;-72
2021/04/18 02:21:32;;;;;;;7.85;4.30;;;;;;;8.09;58.67;100886.75;5093737;28;20044;-72
2021/04/18 02:23:59;;;;;;;7.15;4.20;;;;;;;8.11;58.65;100878.97;5084487;28;20053;-72
2021/04/18 02:26:26;;;;;;;11.25;4.93;;;;;;;8.11;58.90;100885.34;5072912;28;20052;-72
2021/04/18 02:28:55;;;;;;;6.13;3.95;;;;;;;8.17;58.66;100883.38;5072597;28;20055;-72
2021/04/18 02:31:22;;;;;;;7.88;4.53;;;;;;;8.19;58.29;100875.56;5072554;28;20048;-72
2021/04/18 02:33:52;;;;;;;7.63;4.28;;;;;;;8.18;57.52;100873.09;5072790;28;20052;-72
2021/04/18 02:36:19;;;;;;;8.95;4.15;;;;;;;8.18;58.26;100879.44;5072918;28;20064;-72
2021/04/18 02:38:46;;;;;;;8.75;4.78;;;;;;;8.24;57.64;100877.47;5082495;28;20052;-72
2021/04/18 02:41:12;;;;;;;7.85;4.60;;;;;;;8.27;58.51;100877.75;5093115;28;20315;-72
2021/04/18 02:43:39;;;;;;;7.22;4.25;;;;;;;8.32;58.16;100872.13;5093155;28;20048;-72
2021/04/18 02:46:07;;;;;;;6.18;3.90;;;;;;;8.36;57.68;100875.16;5094563;28;20052;-72
2021/04/18 02:48:37;;;;;;;8.48;4.63;;;;;;;8.41;58.32;100874.31;5092936;28;20052;-72
2021/04/18 02:51:04;;;;;;;6.78;4.60;;;;;;;8.42;57.83;100868.50;5093097;28;20075;-72
2021/04/18 02:53:31;;;;;;;9.35;5.20;;;;;;;8.45;57.18;100869.84;5093171;28;20393;-72
2021/04/18 02:55:58;;;;;;;8.88;5.22;;;;;;;8.47;57.81;100870.41;5077873;28;20056;-72
2021/04/18 02:58:24;;;;;;;9.48;4.88;;;;;;;8.53;57.07;100869.22;5072893;28;20055;-72
2021/04/18 03:00:51;;;;;;;10.00;5.18;;;;;;;8.54;56.57;100873.66;5072812;28;20401;-72
2021/04/18 03:03:18;;;;;;;8.13;4.75;;;;;;;8.59;57.03;100865.28;5076015;28;20047;-72
2021/04/18 03:05:46;;;;;;;7.28;4.78;;;;;;;8.58;57.22;100868.34;5092664;28;20051;-72
2021/04/18 03:08:12;;;;;;;9.23;5.22;;;;;;;8.60;56.65;100866.94;5093575;28;20134;-72
2021/04/18 03:10:39;;;;;;;11.48;5.53;;;;;;;8.54;57.48;100868.91;5093921;28;20059;-72
2021/04/18 03:13:06;;;;;;;8.10;4.53;;;;;;;8.52;57.44;100862.00;5097324;28;20389;-72
2021/04/18 03:15:33;;;;;;;8.20;5.10;;;;;;;8.54;56.63;100855.03;5084840;28;20405;-72
2021/04/18 03:18:02;;;;;;;8.20;4.72;;;;;;;8.54;56.07;100855.03;5077298;28;20592;-72
2021/04/18 03:20:28;;;;;;;7.10;4.75;;;;;;;8.56;57.46;100851.97;5077333;28;20397;-73
2021/04/18 03:22:57;;;;;;;9.70;4.72;;;;;;;8.57;57.76;100861.13;5077102;28;20060;-73
2021/04/18 03:25:23;;;;;;;7.35;4.40;;;;;;;8.57;57.63;100852.78;5093951;28;20497;-73
2021/04/18 03:27:51;;;;;;;7.75;4.60;;;;;;;8.54;57.75;100849.47;5096785;28;20056;-73
2021/04/18 03:30:18;;;;;;;7.78;4.53;;;;;;;8.58;57.58;100849.72;5096478;28;20048;-72
2021/04/18 03:32:47;;;;;;;8.45;4.82;;;;;;;8.59;57.49;100853.34;5096311;28;20056;-72
2021/04/18 03:35:15;;;;;;;7.22;4.28;;;;;;;8.66;57.59;100856.63;5096527;28;20048;-73
2021/04/18 03:37:42;;;;;;;10.50;5.43;;;;;;;8.66;56.82;100853.84;5096426;28;20048;-73
2021/04/18 03:40:11;;;;;;;10.27;5.10;;;;;;;8.72;56.85;100855.44;5078416;28;20053;-73
2021/04/18 03:42:38;;;;;;;9.68;5.05;;;;;;;8.76;56.79;100861.22;5089347;28;20063;-72
2021/04/18 03:45:05;;;;;;;9.50;4.70;;;;;;;8.78;57.19;100859.84;5096731;28;20056;-72
2021/04/18 03:47:32;;;;;;;7.95;4.90;;;;;;;8.78;57.41;100859.84;5096278;28;20052;-72
2021/04/18 03:49:59;;;;;;;12.00;4.97;;;;;;;8.84;56.33;100858.66;5096626;28;20048;-72
2021/04/18 03:52:25;;;;;;;8.88;4.60;;;;;;;8.84;57.20;100866.16;5095965;28;20064;-72
2021/04/18 03:54:52;;;;;;;8.27;4.85;;;;;;;8.84;56.33;100861.44;5096183;28;20048;-72
2021/04/18 03:57:20;;;;;;;9.45;5.70;;;;;;;8.84;56.93;100857.81;5083529;28;20053;-72
2021/04/18 03:59:47;;;;;;;11.82;4.53;;;;;;;8.78;55.88;100857.06;5075982;28;20517;-72
2021/04/18 04:02:13;;;;;;;9.57;4.60;;;;;;;8.77;57.34;100843.47;5075589;28;20060;-72
2021/04/18 04:04:41;;;;;;;7.40;4.80;;;;;;;8.73;57.76;100843.19;5076084;28;20076;-72
2021/04/18 04:07:08;;;;;;;9.32;5.55;;;;;;;8.74;57.59;100842.09;5094076;28;20056;-72
2021/04/18 04:09:35;;;;;;;7.05;4.90;;;;;;;8.65;58.04;100847.47;5096015;28;20052;-72
2021/04/18 04:12:01;;;;;;;8.90;4.95;;;;;;;8.62;58.11;100847.22;5084536;28;20044;-72
2021/04/18 04:14:29;;;;;;;8.50;5.30;;;;;;;8.53;58.62;100845.06;5074804;28;20052;-72
2021/04/18 04:16:59;;;;;;;7.43;4.68;;;;;;;8.43;59.13;100847.09;5090246;28;20052;-72
2021/04/18 04:19:25;;;;;;;10.93;4.88;;;;;;;8.40;58.43;100851.25;5095172;28;20064;-72
2021/04/18 04:21:55;;;;;;;9.07;4.75;;;;;;;8.40;58.82;100851.25;5095159;28;20052;-72
2021/04/18 04:24:24;;;;;;;8.40;4.60;;;;;;;8.36;58.30;100847.41;5085122;28;20059;-72
2021/04/18 04:26:51;;;;;;;7.50;5.22;;;;;;;8.36;58.46;100841.00;5074943;28;20079;-72
2021/04/18 04:29:18;;;;;;;7.75;4.85;;;;;;;8.36;58.46;100852.97;5075083;28;20045;-72
2021/04/18 04:31:48;;;;;;;7.35;5.10;;;;;;;8.36;58.56;100847.41;5074474;28;20410;-72
2021/04/18 04:34:15;;;;;;;8.00;4.55;;;;;;;8.38;58.94;100847.94;5074957;28;20059;-73
2021/04/18 04:36:41;;;;;;;7.95;4.90;;;;;;;8.41;57.61;100843.78;5074964;28;20056;-73
2021/04/18 04:39:11;;;;;;;13.25;5.40;;;;;;;8.42;57.75;100843.50;5084673;28;20059;-73
2021/04/18 04:41:37;;;;;;;9.73;5.63;;;;;;;8.35;57.89;100845.75;5094617;28;20052;-73
2021/04/18 04:44:05;;;;;;;9.52;5.35;;;;;;;8.29;58.55;100844.97;5096089;28;20051;-72
2021/04/18 04:46:32;;;;;;;9.75;6.05;;;;;;;8.20;58.18;100837.56;5094530;28;20048;-73
2021/04/18 04:49:00;;;;;;;12.55;5.68;;;;;;;8.19;58.10;100844.19;5094906;28;20413;-72
2021/04/18 04:51:26;;;;;;;8.25;5.32;;;;;;;8.11;58.38;100843.72;5094760;28;20048;-72
2021/04/18 04:53:53;;;;;;;9.70;5.00;;;;;;;8.09;58.81;100847.91;5093471;28;20055;-72
2021/04/18 04:56:20;;;;;;;8.43;4.68;;;;;;;8.14;59.31;100843.13;5080696;28;20060;-73
2021/04/18 04:58:47;;;;;;;9.25;4.90;;;;;;;8.20;59.70;100837.56;5074546;28;20060;-72
2021/04/18 05:01:14;;;;;;;10.73;5.38;;;;;;;8.21;59.36;100841.97;5074671;28;20481;-72
2021/04/18 05:03:41;;;;;;;8.20;4.97;;;;;;;8.23;58.95;100842.50;5074237;28;20060;-72
2021/04/18 05:06:09;;;;;;;9.98;4.75;;;;;;;8.20;59.00;100835.59;5084800;28;20048;-72
2021/04/18 05:08:36;;;;;;;8.77;4.93;;;;;;;8.28;58.59;100851.63;5094188;28;20448;-72
2021/04/18 05:11:03;;;;;;;8.43;4.57;;;;;;;8.36;58.28;100850.19;5093941;28;20075;-72
2021/04/18 05:13:30;;;;;;;7.63;5.22;;;;;;;8.37;58.02;100859.34;5094505;28;20044;-72
2021/04/18 05:15:57;;;;;;;9.90;5.28;;;;;;;8.39;57.64;100862.66;5094236;28;20056;-72
2021/04/18 05:18:24;;;;;;;9.73;5.18;;;;;;;8.44;57.94;100863.47;5094088;28;20055;-72
2021/04/18 05:20:51;;;;;;;10.90;5.55;;;;;;;8.45;57.61;100867.06;5094109;28;20059;-72
2021/04/18 05:23:19;;;;;;;10.88;5.55;;;;;;;8.51;57.66;100866.75;5093209;28;20059;-72
2021/04/18 05:25:46;;;;;;;9.57;4.88;;;;;;;8.59;57.17;100875.53;5073646;28;20060;-72
2021/04/18 05:28:13;;;;;;;10.40;6.13;;;;;;;8.67;57.62;100886.03;5073552;28;20053;-72
2021/04/18 05:30:40;;;;;;;7.38;5.40;;;;;;;8.71;57.42;100898.22;5074052;28;20052;-72
2021/04/18 05:33:07;;;;;;;11.48;5.45;;;;;;;8.79;57.34;100891.22;5072886;28;20387;-72
2021/04/18 05:35:34;;;;;;;10.52;5.35;;;;;;;8.83;57.74;100887.56;5073753;28;20055;-72
2021/04/18 05:38:01;;;;;;;7.93;5.20;;;;;;;8.94;56.93;100889.13;5073825;28;20072;-72
2021/04/18 05:40:29;;;;;;;10.52;5.68;;;;;;;9.10;55.85;100875.06;5093562;28;20058;-72
2021/04/18 05:42:56;;;;;;;9.20;5.68;;;;;;;9.22;55.51;100875.47;5094000;28;20421;-72
2021/04/18 05:45:23;;;;;;;11.48;6.55;;;;;;;9.38;54.70;100866.94;5094818;28;20059;-72
2021/04/18 05:47:49;;;;;;;10.73;6.15;;;;;;;9.51;54.65;100866.22;5092539;28;20508;-72
2021/04/18 05:50:16;;;;;;;7.97;5.57;;;;;;;9.67;54.33;100875.22;5093696;28;20056;-72
2021/04/18 05:52:44;;;;;;;11.48;6.50;;;;;;;9.72;53.82;100862.06;5093585;28;20052;-72
2021/04/18 05:55:14;;;;;;;9.77;6.20;;;;;;;9.77;53.54;100863.13;5093358;28;20481;-72
2021/04/18 05:57:41;;;;;;;11.13;5.68;;;;;;;9.79;53.70;100861.69;5093246;28;20055;-72
2021/04/18 06:00:09;;;;;;;8.35;5.65;;;;;;;9.72;53.25;100864.84;5082338;28;20048;-72
2021/04/18 06:02:36;;;;;;;9.32;5.97;;;;;;;9.80;53.38;100856.94;5088459;28;20063;-73
2021/04/18 06:05:04;;;;;;;10.32;5.38;;;;;;;9.94;53.76;100857.88;5093403;28;20076;-73
2021/04/18 06:07:31;;;;;;;8.57;5.43;;;;;;;10.07;53.64;100856.28;5094314;28;20090;-73
2021/04/18 06:10:00;;;;;;;9.10;5.20;;;;;;;10.22;52.59;100858.00;5093992;28;20048;-73
2021/04/18 06:12:29;;;;;;;9.18;5.70;;;;;;;10.31;53.17;100861.75;5093936;28;20048;-73
2021/04/18 06:14:57;;;;;;;8.52;5.53;;;;;;;10.31;52.52;100868.19;5094038;28;20052;-73
2021/04/18 06:17:23;;;;;;;10.52;5.20;;;;;;;10.41;51.98;100872.75;5092707;28;20048;-73
2021/04/18 06:19:50;;;;;;;9.15;5.47;;;;;;;10.55;52.25;100868.06;5094135;28;20067;-73
2021/04/18 06:22:17;;;;;;;10.90;5.70;;;;;;;10.60;52.53;100872.69;5093165;28;20409;-73
2021/04/18 06:24:44;;;;;;;9.80;5.63;;;;;;;10.78;52.86;100859.88;5092268;28;20075;-73
2021/04/18 06:27:13;;;;;;;8.95;5.28;;;;;;;10.90;52.75;100868.56;5093441;28;20052;-73
2021/04/18 06:29:40;;;;;;;9.50;4.85;;;;;;;11.03;52.46;100869.72;5093384;28;20401;-73
2021/04/18 06:32:08;;;;;;;9.13;5.22;;;;;;;11.23;50.80;100871.25;5093443;28;20489;-72
2021/04/18 06:34:36;;;;;;;11.85;6.35;;;;;;;11.34;49.69;100863.56;5093059;28;20048;-73
2021/04/18 06:37:03;;;;;;;9.95;6.05;;;;;;;11.44;49.31;100860.53;5093386;28;20062;-73
2021/04/18 06:39:29;;;;;;;10.10;6.22;;;;;;;11.58;48.75;100861.34;5092759;28;20052;-73
2021/04/18 06:42:01;;;;;;;9.52;5.68;;;;;;;11.73;48.12;100860.19;5092620;28;20047;-73
2021/04/18 06:44:29;;;;;;;9.65;5.25;;;;;;;11.85;47.26;100870.00;5094916;28;20063;-73
2021/04/18 06:46:58;;;;;;;9.68;5.75;;;;;;;11.82;47.45;100870.59;5099802;28;20477;-73
2021/04/18 06:49:26;;;;;;;10.55;6.38;;;;;;;11.97;47.29;100873.94;5099451;28;20051;-73
2021/04/18 06:51:53;;;;;;;9.45;5.88;;;;;;;11.98;47.77;100872.78;5099658;28;20044;-73
2021/04/18 06:54:20;;;;;;;7.72;5.47;;;;;;;12.04;47.63;100878.25;5099693;28;20051;-73
2021/04/18 06:56:47;;;;;;;11.80;6.60;;;;;;;12.18;46.90;100882.66;5098787;28;20056;-73
2021/04/18 06:59:14;;;;;;;10.07;5.95;;;;;;;12.38;46.35;100891.69;5099624;28;20051;-73
2021/04/18 07:01:41;;;;;;;8.60;5.72;;;;;;;12.56;45.24;100899.06;5099743;28;20048;-73
2021/04/18 07:04:09;;;;;;;10.13;6.22;;;;;;;12.62;44.88;100894.19;5099594;28;20392;-73
2021/04/18 07:06:42;;;;;;;8.48;5.95;;;;;;;12.63;45.54;100884.63;5099376;28;20052;-73
2021/04/18 07:09:09;;;;;;;12.02;6.57;;;;;;;12.62;45.62;100876.56;5099609;28;20059;-73
2021/04/18 07:11:48;;;;;;;8.57;5.78;;;;;;;12.67;45.16;100871.69;5091621;28;20056;-73
2021/04/18 07:14:23;;;;;;;10.88;5.95;;;;;;;12.73;45.55;100873.19;5079810;28;20059;-73
2021/04/18 07:16:50;;;;;;;7.95;6.25;;;;;;;12.87;45.37;100875.94;5089482;28;20055;-73
2021/04/18 07:19:22;;;;;;;8.88;5.95;;;;;;;13.05;44.62;100868.44;5083140;28;20056;-72
2021/04/18 07:21:51;;;;;;;10.13;6.57;;;;;;;13.25;44.10;100871.81;5079274;28;20432;-73
2021/04/18 07:24:19;;;;;;;8.15;5.90;;;;;;;13.66;43.68;100865.91;5080447;28;20166;-73
2021/04/18 07:26:57;;;;;;;10.55;6.15;;;;;;;14.25;41.85;100861.84;5082380;28;20043;-73
2021/04/18 07:29:26;;;;;;;8.45;6.28;;;;;;;14.90;40.16;100863.59;5099659;28;20059;-73
2021/04/18 07:31:54;;;;;;;13.35;6.20;;;;;;;15.01;40.22;100855.63;5099827;28;20059;-72
2021/04/18 07:34:23;;;;;;;8.40;6.28;;;;;;;15.05;40.10;100850.19;5099423;28;20056;-72
2021/04/18 07:37:07;;;;;;;9.70;5.93;;;;;;;15.14;39.46;100850.97;5099326;28;20059;-72
2021/04/18 07:39:43;;;;;;;9.93;6.60;;;;;;;15.13;40.00;100852.13;5085574;28;20056;-72
2021/04/18 07:42:35;;;;;;;9.02;6.25;;;;;;;14.89;40.00;100844.28;5079156;28;20485;-72
2021/04/18 07:45:06;;;;;;;8.80;6.45;;;;;;;14.81;41.00;100849.59;5078915;28;20052;-73
2021/04/18 07:47:35;;;;;;;10.30;7.13;;;;;;;14.81;40.71;100837.56;5078851;28;20052;-72
2021/04/18 07:50:05;;;;;;;10.85;6.45;;;;;;;14.95;40.05;100840.16;5079062;28;20060;-72
2021/04/18 07:52:36;;;;;;;10.13;6.47;;;;;;;15.00;40.44;100839.97;5093032;28;20457;-72
2021/04/18 07:55:04;;;;;;;11.10;6.65;;;;;;;15.06;40.61;100837.81;5098937;28;20055;-72
2021/04/18 07:57:31;;;;;;;8.50;6.50;;;;;;;15.05;39.82;100838.97;5095814;28;20047;-72
2021/04/18 07:59:59;;;;;;;11.45;6.68;;;;;;;15.20;40.23;100841.22;5095463;28;20055;-72
2021/04/18 08:02:27;;;;;;;10.38;6.63;;;;;;;15.19;40.58;100834.78;5095826;28;20052;-71
2021/04/18 08:04:55;;;;;;;11.15;6.82;;;;;;;15.05;40.20;100836.16;5095700;28;20489;-72
2021/04/18 08:07:22;;;;;;;12.57;6.18;;;;;;;14.94;39.86;100835.72;5094792;28;20055;-72
2021/04/18 08:10:22;;;;;;;10.32;6.80;;;;;;;14.83;40.16;100838.06;5095798;28;20044;-72
2021/04/18 08:13:10;;;;;;;11.07;7.30;;;;;;;14.80;41.11;100844.31;5095588;28;20044;-72
2021/04/18 08:15:39;;;;;;;10.32;6.95;;;;;;;14.74;40.23;100840.03;5083899;28;20060;-72
2021/04/18 08:18:09;;;;;;;10.63;7.35;;;;;;;14.86;41.25;100830.94;5075271;28;20478;-72
2021/04/18 08:20:38;;;;;;;11.75;7.10;;;;;;;14.88;42.00;100829.44;5075069;28;20056;-72
2021/04/18 08:23:09;;;;;;;11.85;7.10;;;;;;;15.09;42.72;100828.72;5074941;28;20052;-72
2021/04/18 08:26:07;;;;;;;11.40;7.53;;;;;;;15.35;40.96;100839.81;5076567;28;20067;-72
2021/04/18 08:29:18;;;;;;;12.00;7.32;;;;;;;15.59;40.77;100834.41;5075021;28;20056;-72
2021/04/18 08:32:11;;;;;;;9.93;7.45;;;;;;;15.86;40.68;100837.09;5074960;28;20397;-72
2021/04/18 08:34:42;;;;;;;11.00;6.72;;;;;;;15.98;40.09;100831.50;5075026;28;20075;-72
2021/04/18 08:37:19;;;;;;;14.20;7.85;;;;;;;16.14;40.03;100842.97;5074949;28;20057;-72
2021/04/18 08:39:46;;;;;;;12.23;7.47;;;;;;;16.63;40.17;100844.03;5089236;28;20055;-73
2021/04/18 08:42:26;;;;;;;10.73;6.85;;;;;;;17.41;37.09;100844.31;5094867;28;20063;-73
2021/04/18 08:44:53;;;;;;;10.50;7.43;;;;;;;17.82;36.30;100828.28;5095058;28;20082;-73
2021/04/18 08:47:24;;;;;;;13.98;8.32;;;;;;;19.21;33.24;100833.47;5095177;28;20044;-73
2021/04/18 08:49:53;;;;;;;10.02;7.55;;;;;;;21.28;30.34;100833.44;5095299;28;20059;-73
2021/04/18 08:52:22;;;;;;;9.40;7.25;;;;;;;21.29;30.33;100835.91;5094630;28;20059;-73
2021/04/18 08:54:51;;;;;;;12.40;7.57;;;;;;;22.54;27.88;100827.59;5095185;28;20500;-73
2021/04/18 08:57:20;;;;;;;9.57;7.63;;;;;;;23.43;26.45;100838.22;5090306;28;20390;-73
2021/04/18 08:59:52;;;;;;;9.30;7.75;;;;;;;24.92;24.76;100828.03;5087833;28;20052;-74
2021/04/18 09:02:19;;;;;;;9.80;7.38;;;;;;;26.76;21.16;100825.72;5095108;28;20052;-74
2021/04/18 09:04:48;;;;;;;11.35;7.75;;;;;;;26.89;21.07;100823.97;5095745;28;20055;-74
2021/04/18 09:07:16;;;;;;;10.73;7.53;;;;;;;26.90;20.89;100825.63;5094000;28;20063;-73
2021/04/18 09:09:44;;;;;;;8.63;6.93;;;;;;;26.25;20.49;100823.06;5094255;28;20477;-73
2021/04/18 09:12:13;;;;;;;8.52;6.40;;;;;;;25.56;21.29;100840.75;5095116;28;20051;-73
2021/04/18 09:14:43;;;;;;;12.50;7.72;;;;;;;24.54;23.23;100826.72;5095304;28;20048;-73
2021/04/18 09:17:16;;;;;;;9.95;6.82;;;;;;;24.02;23.79;100836.25;5094489;28;20055;-73
2021/04/18 09:19:46;;;;;;;11.52;7.30;;;;;;;23.21;25.36;100835.22;5094821;28;20056;-74
2021/04/18 09:22:15;;;;;;;10.68;6.65;;;;;;;22.78;26.19;100825.41;5095474;28;20048;-74
2021/04/18 09:24:49;;;;;;;9.85;6.25;;;;;;;22.40;26.38;100833.09;5093150;28;20059;-72
2021/04/18 09:27:18;;;;;;;9.52;6.68;;;;;;;21.77;27.26;100840.31;5094986;28;20055;-73
2021/04/18 09:29:50;;;;;;;9.43;7.17;;;;;;;21.34;27.06;100848.94;5095133;28;20389;-73
2021/04/18 09:32:19;;;;;;;11.80;6.88;;;;;;;20.99;27.70;100841.44;5095243;28;20052;-73
2021/04/18 09:34:48;;;;;;;8.63;6.55;;;;;;;20.77;27.56;100840.22;5094423;28;20056;-73
2021/04/18 09:37:23;;;;;;;10.07;6.43;;;;;;;20.62;27.91;100839.13;5095444;28;20051;-73
2021/04/18 09:39:53;;;;;;;8.68;5.93;;;;;;;21.01;27.50;100844.69;5094356;28;20052;-73
2021/04/18 09:42:21;;;;;;;9.80;6.53;;;;;;;21.08;28.31;100838.34;5092267;28;20413;-73
2021/04/18 09:44:51;;;;;;;14.38;7.90;;;;;;;20.88;28.44;100834.75;5093752;28;20067;-73
2021/04/18 09:47:22;;;;;;;11.13;7.05;;;;;;;20.80;28.68;100841.47;5093929;28;20059;-74
2021/04/18 09:49:55;;;;;;;9.68;6.63;;;;;;;20.62;28.40;100832.63;5093354;28;20052;-74
2021/04/18 09:52:31;;;;;;;11.27;7.00;;;;;;;20.28;29.35;100838.81;5092839;28;20055;-74
2021/04/18 09:55:14;;;;;;;10.75;6.63;;;;;;;20.07;30.07;100847.66;5093091;28;20056;-74
2021/04/18 09:57:46;;;;;;;9.88;6.82;;;;;;;19.93;30.31;100835.19;5084081;28;20060;-73
2021/04/18 10:00:25;;;;;;;11.13;7.28;;;;;;;19.80;29.88;100838.16;5079825;28;20048;-72
2021/04/18 10:03:11;;;;;;;12.10;7.43;;;;;;;19.73;30.03;100838.00;5093724;28;20052;-72
2021/04/18 10:05:56;;;;;;;8.60;6.82;;;;;;;19.93;30.27;100829.53;5093624;28;20482;-72
2021/04/18 10:08:26;;;;;;;11.75;7.18;;;;;;;20.00;30.29;100836.19;5093792;28;20047;-73
2021/04/18 10:10:54;;;;;;;9.60;7.00;;;;;;;20.11;29.97;100830.75;5093298;28;20054;-72
2021/04/18 10:13:42;;;;;;;9.60;6.88;;;;;;;20.23;28.95;100830.63;5089439;28;20059;-72
2021/04/18 10:16:10;;;;;;;10.90;6.78;;;;;;;20.81;27.88;100837.44;5089461;28;20052;-71
2021/04/18 10:18:40;;;;;;;10.68;6.88;;;;;;;20.87;27.85;100824.63;5090757;28;20079;-71
2021/04/18 10:21:18;;;;;;;12.38;7.28;;;;;;;21.60;27.57;100819.00;5091503;28;20048;-71
2021/04/18 10:23:46;;;;;;;11.48;7.75;;;;;;;21.68;26.99;100817.91;5091373;28;20071;-72
2021/04/18 10:26:16;;;;;;;9.73;6.85;;;;;;;21.84;26.45;100817.75;5080091;28;20059;-71
2021/04/18 10:28:43;;;;;;;9.95;6.65;;;;;;;21.98;26.25;100812.25;5090659;28;20052;-72
2021/04/18 10:31:12;;;;;;;9.35;6.70;;;;;;;21.77;26.96;100806.28;5090887;28;20052;-71
2021/04/18 10:33:42;;;;;;;10.93;7.00;;;;;;;21.75;27.42;100815.16;5072773;28;20052;-71
2021/04/18 10:36:10;;;;;;;10.90;7.05;;;;;;;21.82;26.28;100808.81;5072869;28;20068;-71
2021/04/18 10:38:37;;;;;;;11.13;7.82;;;;;;;21.93;27.74;100815.44;5075774;28;20052;-72
2021/04/18 10:41:06;;;;;;;12.40;6.70;;;;;;;21.87;27.11;100805.63;5093004;28;20055;-72
2021/04/18 10:43:34;;;;;;;12.00;7.50;;;;;;;21.86;26.51;100807.66;5074546;28;20474;-72
2021/04/18 10:46:01;;;;;;;9.45;6.95;;;;;;;21.66;26.80;100808.97;5072456;28;20065;-71
2021/04/18 10:48:28;;;;;;;10.35;6.97;;;;;;;21.59;27.10;100806.84;5072477;28;20059;-71
2021/04/18 10:50:56;;;;;;;8.82;5.43;;;;;;;21.35;26.87;100802.38;5072622;28;20052;-71
2021/04/18 10:53:23;;;;;;;9.75;6.40;;;;;;;21.10;27.67;100801.97;5072242;28;20049;-71
2021/04/18 10:55:50;;;;;;;10.13;6.47;;;;;;;20.77;27.78;100802.63;5072455;28;20071;-71
2021/04/18 10:58:17;;;;;;;11.40;6.38;;;;;;;20.48;28.37;100802.03;5088284;28;20051;-71
2021/04/18 11:00:44;;;;;;;10.13;6.53;;;;;;;20.12;28.92;100798.47;5072259;28;20049;-71
2021/04/18 11:03:11;;;;;;;8.63;6.10;;;;;;;19.98;30.07;100793.31;5072032;28;20374;-71
2021/04/18 11:05:38;;;;;;;12.40;6.53;;;;;;;19.96;29.93;100807.00;5077573;28;20358;-71
2021/04/18 11:08:10;;;;;;;10.52;6.20;;;;;;;19.95;30.23;100799.72;5092539;28;20056;-72
2021/04/18 11:10:37;;;;;;;10.23;6.90;;;;;;;19.93;30.09;100795.59;5092650;28;20051;-71
2021/04/18 11:13:04;;;;;;;12.63;7.88;;;;;;;19.96;30.32;100795.69;5092368;28;20051;-71
2021/04/18 11:15:31;;;;;;;11.30;6.63;;;;;;;19.96;30.34;100798.53;5092264;28;20409;-72
2021/04/18 11:17:58;;;;;;;9.82;6.30;;;;;;;19.98;30.10;100793.31;5092493;28;20059;-72
2021/04/18 11:20:26;;;;;;;10.95;6.93;;;;;;;19.80;30.72;100786.44;5089245;28;20060;-73
2021/04/18 11:22:56;;;;;;;10.35;7.43;;;;;;;19.66;30.93;100793.41;5092431;28;20055;-73
2021/04/18 11:25:23;;;;;;;9.40;7.00;;;;;;;19.73;30.97;100791.94;5090554;28;20066;-73
2021/04/18 11:27:50;;;;;;;11.95;6.90;;;;;;;19.67;31.89;100791.38;5092573;28;20056;-73
2021/04/18 11:30:19;;;;;;;11.10;7.20;;;;;;;19.66;31.15;100786.94;5092518;28;20474;-72
2021/04/18 11:32:46;;;;;;;11.50;6.47;;;;;;;19.75;31.23;100781.09;5095141;28;20477;-72
2021/04/18 11:35:13;;;;;;;11.55;7.00;;;;;;;19.87;30.90;100781.78;5097080;28;20401;-72